createdAt,value
2019-02-20T00:01:58.121Z,62.06
2019-02-20T00:07:07.182Z,66.14
2019-02-20T00:12:16.300Z,61.39
2019-02-20T00:17:25.367Z,72.87
2019-02-20T00:22:40.232Z,77.36
2019-02-20T00:27:43.053Z,68.35
2019-02-20T00:32:52.157Z,65.17
2019-02-20T00:38:01.247Z,83.45
2019-02-20T00:43:10.340Z,72.89
2019-02-20T00:48:19.481Z,89.00
2019-02-20T00:53:28.724Z,96.50
2019-02-20T00:58:37.779Z,73.87
2019-02-20T01:03:46.916Z,67.73
2019-02-20T01:08:56.062Z,65.96
2019-02-20T01:14:05.301Z,60.36
2019-02-20T01:19:14.375Z,70.64
2019-02-20T01:24:23.513Z,77.61
2019-02-20T01:29:32.613Z,62.38
2019-02-20T01:34:41.753Z,61.13
2019-02-20T01:39:50.846Z,63.51
2019-02-20T01:45:00.041Z,64.35
2019-02-20T01:50:09.140Z,68.09
2019-02-20T01:55:18.235Z,63.67
2019-02-20T02:00:27.300Z,78.19
2019-02-20T02:05:36.533Z,62.78
2019-02-20T02:10:45.628Z,93.70
2019-02-20T02:15:54.774Z,75.15
2019-02-20T02:21:03.870Z,65.55
2019-02-20T02:26:13.141Z,68.04
2019-02-20T02:31:22.224Z,66.61
2019-02-20T02:36:31.526Z,74.97
2019-02-20T02:41:40.565Z,92.32
2019-02-20T02:46:49.819Z,80.75
2019-02-20T02:51:58.860Z,96.91
2019-02-20T02:57:07.968Z,76.06
2019-02-20T03:02:17.109Z,67.12
2019-02-20T03:07:27.855Z,67.96
2019-02-20T03:12:26.883Z,64.20
2019-02-20T03:17:37.644Z,59.01
2019-02-20T03:22:36.731Z,65.21
2019-02-20T03:27:47.581Z,56.99
2019-02-20T03:32:46.641Z,64.98
2019-02-20T03:37:57.350Z,92.71
2019-02-20T03:42:56.390Z,101.00
2019-02-20T03:48:07.160Z,78.62
2019-02-20T03:53:06.230Z,71.56
2019-02-20T03:58:17.041Z,71.44
2019-02-20T04:03:16.123Z,67.82
2019-02-20T04:08:25.433Z,72.11
2019-02-20T04:13:34.519Z,52.80
2019-02-20T04:18:45.270Z,61.23
2019-02-20T04:23:44.329Z,52.99
2019-02-20T04:28:53.458Z,65.09
2019-02-20T04:34:02.510Z,54.07
2019-02-20T04:39:11.760Z,54.23
2019-02-20T04:44:20.821Z,59.35
2019-02-20T04:49:29.924Z,61.37
2019-02-20T04:54:38.988Z,58.63
2019-02-20T04:59:48.214Z,61.23
2019-02-20T05:04:57.265Z,169.28
2019-02-20T05:10:06.531Z,109.69
2019-02-20T05:15:15.598Z,70.16
2019-02-20T05:20:24.828Z,79.37
2019-02-20T05:25:33.863Z,57.25
2019-02-20T05:30:42.974Z,61.05
2019-02-20T05:35:52.047Z,103.29
2019-02-20T05:41:01.178Z,72.69
2019-02-20T05:46:10.251Z,66.58
2019-02-20T05:51:19.586Z,52.84
2019-02-20T05:56:28.654Z,54.87
2019-02-20T06:01:37.889Z,58.06
2019-02-20T06:06:46.949Z,52.50
2019-02-20T06:11:56.067Z,47.91
2019-02-20T06:17:05.192Z,114.14
2019-02-20T06:22:14.388Z,126.05
2019-02-20T06:27:23.485Z,68.10
2019-02-20T06:32:32.632Z,122.61
2019-02-20T06:37:41.747Z,67.05
2019-02-20T06:42:50.912Z,56.71
2019-02-20T06:47:59.963Z,55.04
2019-02-20T06:53:09.231Z,53.53
2019-02-20T06:58:18.299Z,54.25
2019-02-20T07:03:27.420Z,48.00
2019-02-20T07:08:36.502Z,53.40
2019-02-20T07:13:45.781Z,49.34
2019-02-20T07:18:54.892Z,108.94
2019-02-20T07:24:04.009Z,78.01
2019-02-20T07:29:13.141Z,109.88
2019-02-20T07:34:22.252Z,70.28
2019-02-20T07:39:31.310Z,58.15
2019-02-20T07:44:40.535Z,57.23
2019-02-20T07:49:49.579Z,62.20
2019-02-20T07:54:58.702Z,59.62
2019-02-20T08:00:07.787Z,64.59
2019-02-20T08:05:17.006Z,109.13
2019-02-20T08:10:26.074Z,116.56
2019-02-20T08:15:35.418Z,77.90
2019-02-20T08:20:44.455Z,58.82
2019-02-20T08:25:53.707Z,59.30
2019-02-20T08:31:02.813Z,56.97
2019-02-20T08:36:11.917Z,61.86
2019-02-20T08:41:21.131Z,66.77
2019-02-20T08:46:30.319Z,107.59
2019-02-20T08:51:39.406Z,86.20
2019-02-20T08:56:48.568Z,62.11
2019-02-20T09:01:57.792Z,111.24
2019-02-20T09:07:07.031Z,82.89
2019-02-20T09:12:16.102Z,69.33
2019-02-20T09:17:25.347Z,63.35
2019-02-20T09:22:34.461Z,73.80
2019-02-20T09:27:43.809Z,63.12
2019-02-20T09:32:52.935Z,69.92
2019-02-20T09:38:02.084Z,63.38
2019-02-20T09:43:11.435Z,67.63
2019-02-20T09:48:20.643Z,69.64
2019-02-20T09:53:29.742Z,114.68
2019-02-20T09:58:38.990Z,81.84
2019-02-20T10:03:48.042Z,74.68
2019-02-20T10:08:57.336Z,70.18
2019-02-20T10:14:06.438Z,68.88
2019-02-20T10:19:15.745Z,60.50
2019-02-20T10:24:24.875Z,132.74
2019-02-20T10:29:34.053Z,149.09
2019-02-20T10:34:43.228Z,187.65
2019-02-20T10:39:52.322Z,67.31
2019-02-20T10:45:01.476Z,63.30
2019-02-20T10:50:10.670Z,56.08
2019-02-20T10:55:19.819Z,57.76
2019-02-20T11:00:29.052Z,205.90
2019-02-20T11:05:38.107Z,136.64
2019-02-20T11:10:47.241Z,144.59
2019-02-20T11:15:56.351Z,92.58
2019-02-20T11:21:05.607Z,193.84
2019-02-20T11:26:18.389Z,70.67
2019-02-20T11:31:23.342Z,213.02
2019-02-20T11:36:32.385Z,137.07
2019-02-20T11:41:41.638Z,198.88
2019-02-20T11:46:50.714Z,207.16
2019-02-20T11:51:59.904Z,210.92
2019-02-20T11:57:09.010Z,203.21
2019-02-20T12:02:18.285Z,215.91
2019-02-20T12:07:27.412Z,241.44
2019-02-20T12:12:36.789Z,242.33
2019-02-20T12:17:45.855Z,244.15
2019-02-20T12:22:56.000Z,216.63
2019-02-20T12:27:55.095Z,213.85
2019-02-20T12:33:04.246Z,59.55
2019-02-20T12:38:13.375Z,267.32
2019-02-20T12:43:22.716Z,63.23
2019-02-20T12:48:33.451Z,129.92
2019-02-20T12:53:32.575Z,199.14
2019-02-20T12:58:41.636Z,213.33
2019-02-20T13:03:50.783Z,204.29
2019-02-20T13:08:59.949Z,209.80
2019-02-20T13:14:09.101Z,208.64
2019-02-20T13:19:18.157Z,211.81
2019-02-20T13:24:27.595Z,213.19
2019-02-20T13:29:36.754Z,194.14
2019-02-20T13:34:45.994Z,206.13
2019-02-20T13:39:55.046Z,217.79
2019-02-20T13:45:04.234Z,203.14
2019-02-20T13:50:13.336Z,208.44
2019-02-20T13:55:21.974Z,66.65
2019-02-20T14:00:31.015Z,139.97
2019-02-20T14:05:40.170Z,75.82
2019-02-20T14:10:49.252Z,76.23
2019-02-20T14:15:58.499Z,206.82
2019-02-20T14:21:07.574Z,119.28
2019-02-20T14:26:16.858Z,211.23
2019-02-20T14:31:25.965Z,97.71
2019-02-20T14:36:35.296Z,209.07
2019-02-20T14:41:44.374Z,213.23
2019-02-20T14:46:53.779Z,228.78
2019-02-20T14:52:02.879Z,229.00
2019-02-20T14:57:19.315Z,226.70
2019-02-20T15:02:20.772Z,229.91
2019-02-20T15:07:29.948Z,227.29
2019-02-20T15:12:39.062Z,127.59
2019-02-20T15:17:48.358Z,224.22
2019-02-20T15:22:58.452Z,220.45
2019-02-20T15:28:06.139Z,133.34
2019-02-20T15:33:15.468Z,204.23
2019-02-20T15:38:24.687Z,139.99
2019-02-20T15:43:33.782Z,206.51
2019-02-20T15:48:42.974Z,225.82
2019-02-20T15:53:52.063Z,215.94
2019-02-20T15:59:01.333Z,207.81
2019-02-20T16:04:10.304Z,116.99
2019-02-20T16:09:19.518Z,144.50
2019-02-20T16:14:28.679Z,123.72
2019-02-20T16:19:37.895Z,179.57
2019-02-20T16:24:47.063Z,205.25
2019-02-20T16:29:56.263Z,120.12
2019-02-20T16:35:05.376Z,171.22
2019-02-20T16:40:14.029Z,65.57
2019-02-20T16:45:23.146Z,64.61
2019-02-20T16:50:31.912Z,59.45
2019-02-20T16:55:41.197Z,60.12
2019-02-20T17:00:50.341Z,68.49
2019-02-20T17:05:59.527Z,59.40
2019-02-20T17:11:08.870Z,109.90
2019-02-20T17:16:17.920Z,80.61
2019-02-20T17:21:27.246Z,73.18
2019-02-20T17:26:36.302Z,71.78
2019-02-20T17:31:45.483Z,65.12
2019-02-20T17:36:54.577Z,66.58
2019-02-20T17:42:03.812Z,68.75
2019-02-20T17:47:12.923Z,72.49
2019-02-20T17:52:22.134Z,104.47
2019-02-20T17:57:31.248Z,81.80
2019-02-20T18:02:40.529Z,70.95
2019-02-20T18:07:51.682Z,74.95
2019-02-20T18:12:58.321Z,78.38
2019-02-20T18:18:07.404Z,69.15
2019-02-20T18:23:16.530Z,75.77
2019-02-20T18:28:25.607Z,100.64
2019-02-20T18:33:34.858Z,91.01
2019-02-20T18:38:43.975Z,81.18
2019-02-20T18:43:53.121Z,72.26
2019-02-20T18:49:02.229Z,69.68
2019-02-20T18:54:11.500Z,68.34
2019-02-20T18:59:20.601Z,77.48
2019-02-20T19:04:29.849Z,75.81
2019-02-20T19:09:38.927Z,78.37
2019-02-20T19:14:48.073Z,79.73
2019-02-20T19:19:57.126Z,76.24
2019-02-20T19:25:06.362Z,74.37
2019-02-20T19:30:15.448Z,83.60
2019-02-20T19:35:24.650Z,83.39
2019-02-20T19:40:34.106Z,85.93
2019-02-20T19:45:43.482Z,84.69
2019-02-20T19:50:52.726Z,85.81
2019-02-20T19:56:03.754Z,96.38
2019-02-20T20:01:02.809Z,103.93
2019-02-20T20:06:13.743Z,82.52
2019-02-20T20:11:12.775Z,83.04
2019-02-20T20:16:23.240Z,75.65
2019-02-20T20:21:30.753Z,71.98
2019-02-20T20:26:39.899Z,79.27
2019-02-20T20:31:49.004Z,72.80
2019-02-20T20:36:58.164Z,75.64
2019-02-20T20:42:07.300Z,81.05
2019-02-20T20:47:16.529Z,76.27
2019-02-20T20:52:25.605Z,74.18
2019-02-20T20:57:34.819Z,71.86
2019-02-20T21:02:44.019Z,78.10
2019-02-20T21:07:53.269Z,66.79
2019-02-20T21:13:04.409Z,84.08
2019-02-20T21:18:03.444Z,84.71
2019-02-20T21:23:12.491Z,88.75
2019-02-20T21:28:21.754Z,86.14
2019-02-20T21:33:30.818Z,83.42
2019-02-20T21:38:39.926Z,82.24
2019-02-20T21:43:49.021Z,86.53
2019-02-20T21:48:58.207Z,89.38
2019-02-20T21:54:07.300Z,72.80
2019-02-20T21:59:16.422Z,80.15
2019-02-20T22:04:25.481Z,73.97
2019-02-20T22:09:34.617Z,72.07
2019-02-20T22:14:43.722Z,80.77
2019-02-20T22:19:52.907Z,93.58
2019-02-20T22:25:01.963Z,88.46
2019-02-20T22:30:11.102Z,84.80
2019-02-20T22:35:20.170Z,81.71
2019-02-20T22:40:29.455Z,83.88
2019-02-20T22:45:38.501Z,86.07
2019-02-20T22:50:47.785Z,94.02
2019-02-20T22:55:56.939Z,78.75
2019-02-20T23:01:06.010Z,78.92
2019-02-20T23:06:15.310Z,76.31
2019-02-20T23:11:24.470Z,88.35
2019-02-20T23:16:33.545Z,81.82
2019-02-20T23:21:42.651Z,85.11
2019-02-20T23:26:51.719Z,86.35
2019-02-20T23:32:01.018Z,77.73
2019-02-20T23:37:10.114Z,79.86
2019-02-20T23:42:19.252Z,74.23
2019-02-20T23:47:28.312Z,89.84
2019-02-20T23:52:37.639Z,79.08
2019-02-20T23:57:46.593Z,72.38
